sensor_id;sensor_type;location;lat;lon;timestamp;pressure;altitude;pressure_sealevel;temperature;humidity
62420;BME280;48460;51.616;5.426;2023-05-01T00:01:48;101605.47;;;12.64;74.60
62420;BME280;48460;51.616;5.426;2023-05-01T01:35:59;101491.94;;;12.12;78.24
62420;BME280;48460;51.616;5.426;2023-05-01T02:23:20;101441.72;;;11.77;82.62
62420;BME280;48460;51.616;5.426;2023-05-01T03:04:07;101393.47;;;11.57;83.85
62420;BME280;48460;51.616;5.426;2023-05-01T04:16:51;101344.16;;;11.23;87.31
62420;BME280;48460;51.616;5.426;2023-05-01T04:46:30;101346.69;;;11.06;91.27
62420;BME280;48460;51.616;5.426;2023-05-01T05:02:37;101333.06;;;10.98;91.08
62420;BME280;48460;51.616;5.426;2023-05-01T05:05:05;101335.75;;;10.96;91.41
62420;BME280;48460;51.616;5.426;2023-05-01T05:07:54;101340.88;;;10.99;90.80
62420;BME280;48460;51.616;5.426;2023-05-01T05:17:45;101336.97;;;11.08;89.01
62420;BME280;48460;51.616;5.426;2023-05-01T05:50:54;101335.72;;;11.53;87.32
62420;BME280;48460;51.616;5.426;2023-05-01T05:53:20;101332.09;;;11.55;87.09
62420;BME280;48460;51.616;5.426;2023-05-01T05:55:47;101331.94;;;11.58;87.29
62420;BME280;48460;51.616;5.426;2023-05-01T06:05:25;101320.19;;;11.83;85.07
62420;BME280;48460;51.616;5.426;2023-05-01T06:14:33;101316.91;;;11.97;85.09
62420;BME280;48460;51.616;5.426;2023-05-01T06:18:12;101322.66;;;12.05;83.81
62420;BME280;48460;51.616;5.426;2023-05-01T06:58:49;101321.59;;;13.25;81.70
62420;BME280;48460;51.616;5.426;2023-05-01T07:42:34;101314.25;;;14.80;72.66
62420;BME280;48460;51.616;5.426;2023-05-01T07:53:51;101322.28;;;15.76;72.16
62420;BME280;48460;51.616;5.426;2023-05-01T07:56:31;101320.69;;;16.01;69.89
62420;BME280;48460;51.616;5.426;2023-05-01T07:59:10;101325.81;;;15.77;68.75
62420;BME280;48460;51.616;5.426;2023-05-01T08:01:42;101330.69;;;15.56;72.13
62420;BME280;48460;51.616;5.426;2023-05-01T08:07:42;101324.03;;;15.90;73.08
62420;BME280;48460;51.616;5.426;2023-05-01T08:10:24;101319.53;;;16.17;73.24
62420;BME280;48460;51.616;5.426;2023-05-01T08:12:54;101328.25;;;16.32;70.65
62420;BME280;48460;51.616;5.426;2023-05-01T08:15:45;101313.69;;;16.38;70.07
62420;BME280;48460;51.616;5.426;2023-05-01T08:18:21;101317.63;;;16.58;70.13
62420;BME280;48460;51.616;5.426;2023-05-01T08:20:55;101318.69;;;16.94;67.96
62420;BME280;48460;51.616;5.426;2023-05-01T08:23:25;101307.50;;;17.14;65.74
62420;BME280;48460;51.616;5.426;2023-05-01T08:26:12;101308.50;;;17.37;66.61
62420;BME280;48460;51.616;5.426;2023-05-01T08:28:50;101316.81;;;17.81;64.79
62420;BME280;48460;51.616;5.426;2023-05-01T08:31:18;101310.75;;;18.03;63.00
62420;BME280;48460;51.616;5.426;2023-05-01T08:33:51;101310.50;;;18.17;62.02
62420;BME280;48460;51.616;5.426;2023-05-01T08:40:46;101316.06;;;18.03;62.23
62420;BME280;48460;51.616;5.426;2023-05-01T08:43:34;101306.28;;;18.26;63.57
62420;BME280;48460;51.616;5.426;2023-05-01T08:46:05;101309.50;;;18.42;61.61
62420;BME280;48460;51.616;5.426;2023-05-01T08:48:40;101313.09;;;18.30;60.39
62420;BME280;48460;51.616;5.426;2023-05-01T08:51:32;101308.19;;;18.01;59.61
62420;BME280;48460;51.616;5.426;2023-05-01T08:54:00;101310.88;;;18.12;61.04
62420;BME280;48460;51.616;5.426;2023-05-01T08:56:35;101316.03;;;17.91;61.52
62420;BME280;48460;51.616;5.426;2023-05-01T08:59:04;101313.63;;;18.11;63.43
62420;BME280;48460;51.616;5.426;2023-05-01T09:01:36;101316.94;;;18.26;62.94
62420;BME280;48460;51.616;5.426;2023-05-01T09:04:30;101311.38;;;18.29;61.31
62420;BME280;48460;51.616;5.426;2023-05-01T09:07:00;101308.78;;;18.62;63.04
62420;BME280;48460;51.616;5.426;2023-05-01T09:09:32;101311.91;;;18.67;60.70
62420;BME280;48460;51.616;5.426;2023-05-01T09:12:19;101316.69;;;18.86;61.67
62420;BME280;48460;51.616;5.426;2023-05-01T09:14:51;101316.13;;;19.26;58.96
62420;BME280;48460;51.616;5.426;2023-05-01T09:17:19;101309.28;;;19.67;56.38
62420;BME280;48460;51.616;5.426;2023-05-01T09:20:13;101320.38;;;20.25;57.38
62420;BME280;48460;51.616;5.426;2023-05-01T09:23:02;101316.78;;;20.57;54.67
62420;BME280;48460;51.616;5.426;2023-05-01T09:26:42;101314.72;;;20.91;54.78
62420;BME280;48460;51.616;5.426;2023-05-01T09:33:12;101319.16;;;21.31;52.38
62420;BME280;48460;51.616;5.426;2023-05-01T09:35:53;101319.81;;;21.64;52.06
62420;BME280;48460;51.616;5.426;2023-05-01T09:38:42;101314.59;;;22.01;49.54
62420;BME280;48460;51.616;5.426;2023-05-01T09:41:28;101313.03;;;21.89;50.29
62420;BME280;48460;51.616;5.426;2023-05-01T09:43:59;101314.56;;;21.92;49.77
62420;BME280;48460;51.616;5.426;2023-05-01T09:46:43;101306.69;;;22.19;49.17
62420;BME280;48460;51.616;5.426;2023-05-01T09:49:15;101313.41;;;22.43;48.44
62420;BME280;48460;51.616;5.426;2023-05-01T09:51:44;101314.63;;;22.58;50.37
62420;BME280;48460;51.616;5.426;2023-05-01T09:54:20;101318.44;;;22.56;50.13
62420;BME280;48460;51.616;5.426;2023-05-01T09:56:49;101314.19;;;22.63;49.83
62420;BME280;48460;51.616;5.426;2023-05-01T09:59:21;101310.91;;;22.69;48.62
62420;BME280;48460;51.616;5.426;2023-05-01T10:01:54;101316.47;;;22.58;47.63
62420;BME280;48460;51.616;5.426;2023-05-01T10:04:32;101315.88;;;22.17;47.77
62420;BME280;48460;51.616;5.426;2023-05-01T10:07:11;101317.84;;;21.66;49.12
62420;BME280;48460;51.616;5.426;2023-05-01T10:12:28;101315.22;;;21.26;49.35
62420;BME280;48460;51.616;5.426;2023-05-01T10:15:06;101318.41;;;21.10;49.90
62420;BME280;48460;51.616;5.426;2023-05-01T10:17:34;101310.66;;;21.07;50.56
62420;BME280;48460;51.616;5.426;2023-05-01T10:20:02;101319.03;;;21.33;49.28
62420;BME280;48460;51.616;5.426;2023-05-01T10:22:39;101322.66;;;21.22;49.88
62420;BME280;48460;51.616;5.426;2023-05-01T10:25:09;101325.91;;;21.26;50.05
62420;BME280;48460;51.616;5.426;2023-05-01T10:27:46;101329.78;;;21.43;51.07
62420;BME280;48460;51.616;5.426;2023-05-01T10:30:18;101326.00;;;21.65;51.51
62420;BME280;48460;51.616;5.426;2023-05-01T10:33:04;101327.41;;;21.59;51.28
62420;BME280;48460;51.616;5.426;2023-05-01T10:35:38;101328.66;;;21.55;51.99
62420;BME280;48460;51.616;5.426;2023-05-01T10:38:07;101326.56;;;21.58;51.21
62420;BME280;48460;51.616;5.426;2023-05-01T10:40:45;101337.13;;;21.70;52.20
62420;BME280;48460;51.616;5.426;2023-05-01T10:43:28;101327.84;;;21.64;51.15
62420;BME280;48460;51.616;5.426;2023-05-01T10:51:32;101336.69;;;22.03;49.17
62420;BME280;48460;51.616;5.426;2023-05-01T10:56:41;101342.22;;;22.02;50.35
62420;BME280;48460;51.616;5.426;2023-05-01T10:59:26;101342.06;;;22.13;48.19
62420;BME280;48460;51.616;5.426;2023-05-01T11:01:52;101327.50;;;22.45;47.79
62420;BME280;48460;51.616;5.426;2023-05-01T11:10:00;101330.88;;;22.94;46.60
62420;BME280;48460;51.616;5.426;2023-05-01T11:12:48;101337.78;;;23.24;44.74
62420;BME280;48460;51.616;5.426;2023-05-01T11:15:33;101340.41;;;23.34;44.30
62420;BME280;48460;51.616;5.426;2023-05-01T11:18:02;101328.69;;;23.07;42.23
62420;BME280;48460;51.616;5.426;2023-05-01T11:20:55;101327.19;;;23.23;44.93
62420;BME280;48460;51.616;5.426;2023-05-01T11:23:22;101335.44;;;23.39;42.99
62420;BME280;48460;51.616;5.426;2023-05-01T11:26:06;101337.63;;;23.53;43.97
62420;BME280;48460;51.616;5.426;2023-05-01T11:28:37;101341.56;;;23.77;44.51
62420;BME280;48460;51.616;5.426;2023-05-01T11:31:05;101336.72;;;23.98;40.96
62420;BME280;48460;51.616;5.426;2023-05-01T11:36:58;101344.81;;;24.24;42.70
62420;BME280;48460;51.616;5.426;2023-05-01T11:39:28;101334.97;;;24.15;40.92
62420;BME280;48460;51.616;5.426;2023-05-01T11:42:07;101328.91;;;24.31;41.62
62420;BME280;48460;51.616;5.426;2023-05-01T11:44:33;101339.44;;;24.42;40.17
62420;BME280;48460;51.616;5.426;2023-05-01T11:47:01;101346.88;;;24.48;40.66
62420;BME280;48460;51.616;5.426;2023-05-01T11:49:27;101347.84;;;24.47;40.56
62420;BME280;48460;51.616;5.426;2023-05-01T11:51:59;101346.19;;;24.81;41.12
62420;BME280;48460;51.616;5.426;2023-05-01T11:54:25;101349.41;;;24.84;40.40
62420;BME280;48460;51.616;5.426;2023-05-01T11:56:58;101354.84;;;25.00;40.54
62420;BME280;48460;51.616;5.426;2023-05-01T11:59:27;101343.88;;;24.86;38.73
62420;BME280;48460;51.616;5.426;2023-05-01T12:01:54;101344.13;;;25.09;39.49
62420;BME280;48460;51.616;5.426;2023-05-01T12:04:25;101352.47;;;25.23;39.50
62420;BME280;48460;51.616;5.426;2023-05-01T12:06:55;101353.56;;;25.13;38.83
62420;BME280;48460;51.616;5.426;2023-05-01T12:09:23;101346.13;;;24.64;39.68
62420;BME280;48460;51.616;5.426;2023-05-01T12:11:53;101362.66;;;24.07;40.63
62420;BME280;48460;51.616;5.426;2023-05-01T12:14:23;101349.50;;;23.69;41.17
62420;BME280;48460;51.616;5.426;2023-05-01T12:16:52;101351.03;;;23.53;42.71
62420;BME280;48460;51.616;5.426;2023-05-01T12:19:19;101354.41;;;24.09;40.40
62420;BME280;48460;51.616;5.426;2023-05-01T12:22:13;101347.31;;;24.44;39.84
62420;BME280;48460;51.616;5.426;2023-05-01T12:24:57;101350.28;;;24.59;37.93
62420;BME280;48460;51.616;5.426;2023-05-01T12:27:26;101344.91;;;24.93;37.78
62420;BME280;48460;51.616;5.426;2023-05-01T12:29:52;101347.31;;;25.55;37.77
62420;BME280;48460;51.616;5.426;2023-05-01T12:32:29;101343.19;;;26.01;37.49
62420;BME280;48460;51.616;5.426;2023-05-01T12:34:57;101353.47;;;26.30;35.34
62420;BME280;48460;51.616;5.426;2023-05-01T12:37:30;101344.16;;;26.57;33.90
62420;BME280;48460;51.616;5.426;2023-05-01T12:39:56;101349.06;;;26.54;33.96
62420;BME280;48460;51.616;5.426;2023-05-01T12:42:23;101350.78;;;26.06;35.38
62420;BME280;48460;51.616;5.426;2023-05-01T12:44:58;101355.78;;;25.76;35.43
62420;BME280;48460;51.616;5.426;2023-05-01T12:47:24;101354.28;;;25.74;35.66
62420;BME280;48460;51.616;5.426;2023-05-01T12:50:04;101355.22;;;25.48;34.93
62420;BME280;48460;51.616;5.426;2023-05-01T12:52:31;101350.16;;;25.02;35.12
62420;BME280;48460;51.616;5.426;2023-05-01T12:58:04;101354.69;;;23.80;36.36
62420;BME280;48460;51.616;5.426;2023-05-01T13:00:50;101354.75;;;23.70;39.13
62420;BME280;48460;51.616;5.426;2023-05-01T13:03:27;101352.59;;;23.28;40.50
62420;BME280;48460;51.616;5.426;2023-05-01T13:06:13;101350.69;;;23.20;40.90
62420;BME280;48460;51.616;5.426;2023-05-01T13:09:14;101355.13;;;23.02;43.08
62420;BME280;48460;51.616;5.426;2023-05-01T13:12:06;101352.72;;;23.09;42.92
62420;BME280;48460;51.616;5.426;2023-05-01T13:15:05;101357.56;;;22.86;43.05
62420;BME280;48460;51.616;5.426;2023-05-01T13:17:31;101355.47;;;22.33;42.76
62420;BME280;48460;51.616;5.426;2023-05-01T13:20:28;101358.97;;;22.04;43.53
62420;BME280;48460;51.616;5.426;2023-05-01T13:23:35;101364.63;;;21.81;44.02
62420;BME280;48460;51.616;5.426;2023-05-01T13:29:40;101357.09;;;21.36;44.22
62420;BME280;48460;51.616;5.426;2023-05-01T13:32:20;101364.63;;;21.22;43.72
62420;BME280;48460;51.616;5.426;2023-05-01T13:48:26;101355.59;;;21.13;43.41
62420;BME280;48460;51.616;5.426;2023-05-01T13:57:23;101352.13;;;20.91;44.15
62420;BME280;48460;51.616;5.426;2023-05-01T13:59:49;101356.75;;;20.59;43.81
62420;BME280;48460;51.616;5.426;2023-05-01T14:02:20;101359.72;;;20.44;44.69
62420;BME280;48460;51.616;5.426;2023-05-01T14:04:50;101359.31;;;20.49;46.47
62420;BME280;48460;51.616;5.426;2023-05-01T14:07:23;101366.75;;;20.45;45.93
62420;BME280;48460;51.616;5.426;2023-05-01T14:09:57;101361.75;;;20.31;46.51
62420;BME280;48460;51.616;5.426;2023-05-01T14:12:29;101368.31;;;20.27;47.70
62420;BME280;48460;51.616;5.426;2023-05-01T14:14:55;101372.41;;;20.10;48.67
62420;BME280;48460;51.616;5.426;2023-05-01T14:17:37;101367.88;;;19.90;48.06
62420;BME280;48460;51.616;5.426;2023-05-01T14:20:12;101366.03;;;19.69;48.53
62420;BME280;48460;51.616;5.426;2023-05-01T14:22:42;101367.00;;;19.68;50.48
62420;BME280;48460;51.616;5.426;2023-05-01T14:27:46;101372.38;;;19.34;49.34
62420;BME280;48460;51.616;5.426;2023-05-01T14:30:42;101379.88;;;19.41;50.51
62420;BME280;48460;51.616;5.426;2023-05-01T14:33:12;101373.47;;;19.32;50.00
62420;BME280;48460;51.616;5.426;2023-05-01T14:35:47;101371.53;;;19.23;50.03
62420;BME280;48460;51.616;5.426;2023-05-01T14:38:14;101368.88;;;19.11;50.60
62420;BME280;48460;51.616;5.426;2023-05-01T14:40:43;101359.06;;;19.12;50.84
62420;BME280;48460;51.616;5.426;2023-05-01T14:43:17;101370.81;;;19.32;50.91
62420;BME280;48460;51.616;5.426;2023-05-01T14:45:46;101366.06;;;19.35;50.65
62420;BME280;48460;51.616;5.426;2023-05-01T14:48:49;101360.94;;;19.55;49.69
62420;BME280;48460;51.616;5.426;2023-05-01T14:52:09;101365.97;;;19.80;49.53
62420;BME280;48460;51.616;5.426;2023-05-01T14:55:49;101368.75;;;19.90;49.68
62420;BME280;48460;51.616;5.426;2023-05-01T14:58:42;101377.47;;;19.92;49.39
62420;BME280;48460;51.616;5.426;2023-05-01T15:01:59;101370.47;;;20.12;49.46
62420;BME280;48460;51.616;5.426;2023-05-01T15:11:52;101380.59;;;20.30;49.04
62420;BME280;48460;51.616;5.426;2023-05-01T15:14:17;101378.19;;;20.26;49.52
62420;BME280;48460;51.616;5.426;2023-05-01T15:16:43;101368.03;;;20.62;49.38
62420;BME280;48460;51.616;5.426;2023-05-01T15:19:15;101369.03;;;20.92;48.97
62420;BME280;48460;51.616;5.426;2023-05-01T15:21:56;101371.38;;;21.16;47.58
62420;BME280;48460;51.616;5.426;2023-05-01T15:24:22;101374.91;;;21.57;48.40
62420;BME280;48460;51.616;5.426;2023-05-01T15:26:47;101373.78;;;21.59;47.21
62420;BME280;48460;51.616;5.426;2023-05-01T15:29:22;101373.78;;;21.59;45.49
62420;BME280;48460;51.616;5.426;2023-05-01T15:31:47;101378.53;;;21.46;45.21
62420;BME280;48460;51.616;5.426;2023-05-01T15:34:13;101390.88;;;21.37;46.68
62420;BME280;48460;51.616;5.426;2023-05-01T15:36:42;101383.63;;;21.19;46.85
62420;BME280;48460;51.616;5.426;2023-05-01T15:39:10;101378.66;;;21.14;47.83
62420;BME280;48460;51.616;5.426;2023-05-01T15:41:37;101383.03;;;20.84;48.22
62420;BME280;48460;51.616;5.426;2023-05-01T15:44:19;101392.16;;;20.82;48.73
62420;BME280;48460;51.616;5.426;2023-05-01T15:46:53;101390.81;;;20.66;48.74
62420;BME280;48460;51.616;5.426;2023-05-01T15:49:28;101387.59;;;20.52;49.57
62420;BME280;48460;51.616;5.426;2023-05-01T15:51:54;101397.41;;;20.41;49.29
62420;BME280;48460;51.616;5.426;2023-05-01T15:54:23;101399.88;;;20.33;50.27
62420;BME280;48460;51.616;5.426;2023-05-01T15:56:49;101398.88;;;20.34;50.38
62420;BME280;48460;51.616;5.426;2023-05-01T15:59:16;101409.25;;;20.27;53.07
62420;BME280;48460;51.616;5.426;2023-05-01T16:01:42;101403.25;;;20.14;52.25
62420;BME280;48460;51.616;5.426;2023-05-01T16:04:08;101399.03;;;20.00;52.51
62420;BME280;48460;51.616;5.426;2023-05-01T16:06:39;101392.78;;;19.90;52.36
62420;BME280;48460;51.616;5.426;2023-05-01T16:09:05;101395.84;;;19.74;53.13
62420;BME280;48460;51.616;5.426;2023-05-01T16:11:30;101404.94;;;19.72;52.66
62420;BME280;48460;51.616;5.426;2023-05-01T16:13:57;101401.97;;;19.43;53.71
62420;BME280;48460;51.616;5.426;2023-05-01T16:16:24;101404.88;;;19.28;55.83
62420;BME280;48460;51.616;5.426;2023-05-01T16:19:29;101417.97;;;18.98;57.07
62420;BME280;48460;51.616;5.426;2023-05-01T16:22:05;101412.03;;;18.83;57.98
62420;BME280;48460;51.616;5.426;2023-05-01T16:24:34;101421.81;;;18.47;59.36
62420;BME280;48460;51.616;5.426;2023-05-01T16:27:10;101419.38;;;18.44;61.11
62420;BME280;48460;51.616;5.426;2023-05-01T16:36:26;101421.81;;;18.36;60.89
62420;BME280;48460;51.616;5.426;2023-05-01T16:39:15;101436.75;;;18.26;60.68
62420;BME280;48460;51.616;5.426;2023-05-01T16:41:45;101428.41;;;17.95;62.60
62420;BME280;48460;51.616;5.426;2023-05-01T17:01:28;101454.84;;;18.09;62.39
62420;BME280;48460;51.616;5.426;2023-05-01T17:03:55;101451.06;;;18.01;65.30
62420;BME280;48460;51.616;5.426;2023-05-01T17:06:42;101445.22;;;17.95;63.72
62420;BME280;48460;51.616;5.426;2023-05-01T17:09:38;101451.97;;;17.88;63.17
62420;BME280;48460;51.616;5.426;2023-05-01T17:12:14;101448.16;;;17.80;64.39
62420;BME280;48460;51.616;5.426;2023-05-01T17:14:42;101440.47;;;17.75;65.14
62420;BME280;48460;51.616;5.426;2023-05-01T17:17:17;101445.59;;;17.78;64.55
62420;BME280;48460;51.616;5.426;2023-05-01T17:23:33;101450.41;;;17.60;63.70
62420;BME280;48460;51.616;5.426;2023-05-01T17:26:01;101452.56;;;17.55;65.68
62420;BME280;48460;51.616;5.426;2023-05-01T17:28:27;101458.19;;;17.50;67.88
62420;BME280;48460;51.616;5.426;2023-05-01T17:30:55;101457.56;;;17.47;67.51
62420;BME280;48460;51.616;5.426;2023-05-01T17:33:24;101445.16;;;17.35;68.47
62420;BME280;48460;51.616;5.426;2023-05-01T17:35:52;101463.22;;;17.29;67.70
62420;BME280;48460;51.616;5.426;2023-05-01T17:38:19;101466.41;;;17.22;69.03
62420;BME280;48460;51.616;5.426;2023-05-01T17:40:54;101464.06;;;17.30;68.40
62420;BME280;48460;51.616;5.426;2023-05-01T17:43:38;101475.34;;;17.21;67.65
62420;BME280;48460;51.616;5.426;2023-05-01T17:46:15;101470.34;;;17.16;67.64
62420;BME280;48460;51.616;5.426;2023-05-01T17:48:42;101471.53;;;17.12;68.81
62420;BME280;48460;51.616;5.426;2023-05-01T17:51:10;101475.16;;;17.11;67.18
62420;BME280;48460;51.616;5.426;2023-05-01T17:53:38;101481.31;;;16.99;67.46
62420;BME280;48460;51.616;5.426;2023-05-01T17:56:04;101487.66;;;16.83;68.47
62420;BME280;48460;51.616;5.426;2023-05-01T17:58:32;101489.78;;;16.78;68.86
62420;BME280;48460;51.616;5.426;2023-05-01T18:00:58;101493.44;;;16.63;70.05
62420;BME280;48460;51.616;5.426;2023-05-01T18:03:30;101494.16;;;16.52;70.83
62420;BME280;48460;51.616;5.426;2023-05-01T18:06:04;101492.00;;;16.45;71.54
62420;BME280;48460;51.616;5.426;2023-05-01T18:08:33;101502.28;;;16.36;72.86
62420;BME280;48460;51.616;5.426;2023-05-01T18:14:03;101504.19;;;16.07;73.23
62420;BME280;48460;51.616;5.426;2023-05-01T18:16:32;101507.13;;;16.03;74.00
62420;BME280;48460;51.616;5.426;2023-05-01T18:19:08;101505.25;;;15.90;74.59
62420;BME280;48460;51.616;5.426;2023-05-01T18:21:36;101514.25;;;15.88;74.92
62420;BME280;48460;51.616;5.426;2023-05-01T18:24:08;101516.38;;;15.83;75.94
62420;BME280;48460;51.616;5.426;2023-05-01T18:26:36;101517.22;;;15.83;76.40
62420;BME280;48460;51.616;5.426;2023-05-01T18:29:12;101521.00;;;15.79;77.02
62420;BME280;48460;51.616;5.426;2023-05-01T18:35:11;101534.53;;;15.60;77.90
62420;BME280;48460;51.616;5.426;2023-05-01T18:37:39;101532.63;;;15.48;78.53
62420;BME280;48460;51.616;5.426;2023-05-01T18:40:11;101531.31;;;15.41;78.98
62420;BME280;48460;51.616;5.426;2023-05-01T18:42:44;101546.16;;;15.43;79.26
62420;BME280;48460;51.616;5.426;2023-05-01T18:45:12;101547.69;;;15.33;80.00
62420;BME280;48460;51.616;5.426;2023-05-01T18:47:41;101548.91;;;15.27;79.93
62420;BME280;48460;51.616;5.426;2023-05-01T18:50:16;101555.34;;;15.23;79.73
62420;BME280;48460;51.616;5.426;2023-05-01T18:52:59;101562.59;;;15.20;79.90
62420;BME280;48460;51.616;5.426;2023-05-01T18:56:01;101559.66;;;15.10;80.05
62420;BME280;48460;51.616;5.426;2023-05-01T18:58:52;101571.56;;;15.03;81.21
62420;BME280;48460;51.616;5.426;2023-05-01T19:05:17;101562.41;;;14.78;82.10
62420;BME280;48460;51.616;5.426;2023-05-01T19:08:10;101570.44;;;14.77;82.27
62420;BME280;48460;51.616;5.426;2023-05-01T19:14:27;101574.94;;;14.61;83.91
62420;BME280;48460;51.616;5.426;2023-05-01T19:16:57;101585.34;;;14.64;84.55
62420;BME280;48460;51.616;5.426;2023-05-01T19:19:52;101585.75;;;14.56;85.14
62420;BME280;48460;51.616;5.426;2023-05-01T19:22:35;101580.78;;;14.50;84.12
62420;BME280;48460;51.616;5.426;2023-05-01T19:25:34;101590.19;;;14.40;85.34
62420;BME280;48460;51.616;5.426;2023-05-01T19:28:05;101597.59;;;14.33;85.11
62420;BME280;48460;51.616;5.426;2023-05-01T19:30:40;101592.03;;;14.22;84.65
62420;BME280;48460;51.616;5.426;2023-05-01T19:33:18;101588.66;;;14.20;85.70
62420;BME280;48460;51.616;5.426;2023-05-01T19:35:58;101595.38;;;14.09;86.89
62420;BME280;48460;51.616;5.426;2023-05-01T19:38:30;101597.09;;;14.10;86.70
62420;BME280;48460;51.616;5.426;2023-05-01T19:41:04;101602.72;;;14.04;85.74
62420;BME280;48460;51.616;5.426;2023-05-01T19:43:35;101605.75;;;13.97;86.25
62420;BME280;48460;51.616;5.426;2023-05-01T19:46:13;101604.41;;;13.89;86.75
62420;BME280;48460;51.616;5.426;2023-05-01T19:59:49;101636.16;;;13.72;86.46
62420;BME280;48460;51.616;5.426;2023-05-01T20:16:19;101657.63;;;13.49;84.87
62420;BME280;48460;51.616;5.426;2023-05-01T20:47:41;101691.91;;;12.77;93.74
62420;BME280;48460;51.616;5.426;2023-05-01T20:50:10;101692.56;;;12.64;94.22
62420;BME280;48460;51.616;5.426;2023-05-01T23:59:59;101843.06;;;11.57;100.00
